Time;durP1;ratioP1;P1;durP2;ratioP2;P2;SDS_P1;SDS_P2;PMS_P1;PMS_P2;Temp;Humidity;BMP_temperature;BMP_pressure;BME280_temperature;BME280_humidity;BME280_pressure;Samples;Min_cycle;Max_cycle;Signal;HPM_P1;HPM_P2
2024/03/06 00:01:32;;;;;;;2.70;2.13;;;;;;;;;;12907574;22;20047;-73
2024/03/06 00:06:36;;;;;;;1.95;1.63;;;;;;;;;;12923790;23;20114;-74
2024/03/06 00:11:40;;;;;;;2.45;1.98;;;;;;;;;;12920849;22;20032;-74
2024/03/06 00:16:45;;;;;;;2.90;1.88;;;;;;;;;;12922157;22;20024;-74
2024/03/06 00:21:48;;;;;;;3.30;2.07;;;;;;;;;;12922145;22;20028;-74
2024/03/06 00:26:52;;;;;;;3.42;2.33;;;;;;;;;;12920314;22;20085;-74
2024/03/06 00:31:56;;;;;;;2.00;1.65;;;;;;;;;;12921342;22;20024;-74
2024/03/06 00:37:00;;;;;;;1.77;1.65;;;;;;;;;;12907863;22;20610;-74
2024/03/06 00:42:04;;;;;;;2.85;2.00;;;;;;;;;;12919995;22;20051;-74
2024/03/06 00:47:09;;;;;;;1.92;1.60;;;;;;;;;;12919258;22;20027;-74
2024/03/06 00:52:12;;;;;;;2.03;1.52;;;;;;;;;;12918103;22;20028;-74
2024/03/06 00:57:16;;;;;;;2.15;1.55;;;;;;;;;;12880610;22;20047;-74
2024/03/06 01:02:21;;;;;;;1.73;1.40;;;;;;;;;;12908092;22;20020;-74
2024/03/06 01:07:25;;;;;;;3.65;1.67;;;;;;;;;;12916902;22;20459;-74
2024/03/06 01:12:28;;;;;;;1.80;1.35;;;;;;;;;;12917435;23;20779;-74
2024/03/06 01:17:33;;;;;;;2.00;1.17;;;;;;;;;;12917056;22;20209;-74
2024/03/06 01:22:37;;;;;;;3.63;1.40;;;;;;;;;;12916637;23;20107;-74
2024/03/06 01:27:40;;;;;;;1.98;1.38;;;;;;;;;;12921286;22;20340;-74
2024/03/06 01:32:44;;;;;;;1.92;1.40;;;;;;;;;;12919344;22;20020;-74
2024/03/06 01:37:48;;;;;;;1.40;1.30;;;;;;;;;;12919944;22;20347;-74
2024/03/06 01:42:52;;;;;;;2.67;1.17;;;;;;;;;;12884628;23;20030;-74
2024/03/06 01:47:56;;;;;;;1.90;1.33;;;;;;;;;;12884716;22;20099;-74
2024/03/06 01:53:00;;;;;;;1.65;1.20;;;;;;;;;;12918770;23;20027;-74
2024/03/06 01:58:05;;;;;;;1.50;1.25;;;;;;;;;;12917932;22;20538;-74
2024/03/06 02:03:11;;;;;;;1.23;1.10;;;;;;;;;;12911594;23;20027;-74
2024/03/06 02:08:14;;;;;;;2.20;1.73;;;;;;;;;;12910373;22;20378;-74
2024/03/06 02:13:18;;;;;;;2.28;1.75;;;;;;;;;;12916911;22;20107;-74
2024/03/06 02:18:22;;;;;;;1.48;1.20;;;;;;;;;;12926954;22;20076;-74
2024/03/06 02:23:27;;;;;;;1.75;1.40;;;;;;;;;;12918439;23;20490;-73
2024/03/06 02:28:30;;;;;;;3.08;1.48;;;;;;;;;;12887917;22;20203;-74
2024/03/06 02:33:34;;;;;;;4.15;2.22;;;;;;;;;;12918253;23;20035;-74
2024/03/06 02:38:39;;;;;;;6.22;3.08;;;;;;;;;;12910939;22;20030;-74
2024/03/06 02:43:42;;;;;;;12.45;5.38;;;;;;;;;;12911128;22;20515;-74
2024/03/06 02:48:45;;;;;;;10.93;4.30;;;;;;;;;;12911387;22;20055;-74
2024/03/06 02:53:53;;;;;;;12.55;4.78;;;;;;;;;;12909894;23;20103;-74
2024/03/06 02:58:57;;;;;;;8.10;3.75;;;;;;;;;;12913586;22;20099;-74
2024/03/06 03:04:02;;;;;;;10.88;3.95;;;;;;;;;;12913409;22;20095;-74
2024/03/06 03:09:06;;;;;;;6.90;3.00;;;;;;;;;;12909444;22;20020;-74
2024/03/06 03:14:09;;;;;;;6.13;2.40;;;;;;;;;;12882255;23;20463;-74
2024/03/06 03:19:13;;;;;;;4.13;2.13;;;;;;;;;;12909432;22;20020;-74
2024/03/06 03:24:20;;;;;;;2.78;1.75;;;;;;;;;;12911420;23;20341;-74
2024/03/06 03:29:23;;;;;;;2.90;1.83;;;;;;;;;;12911562;22;20024;-74
2024/03/06 03:34:26;;;;;;;4.30;2.03;;;;;;;;;;12909331;23;20099;-74
2024/03/06 03:39:31;;;;;;;4.13;2.17;;;;;;;;;;12910757;22;20043;-74
2024/03/06 03:44:34;;;;;;;2.38;1.52;;;;;;;;;;12910682;23;20032;-74
2024/03/06 03:49:37;;;;;;;2.53;1.52;;;;;;;;;;12908682;22;20091;-74
2024/03/06 03:54:42;;;;;;;3.72;1.92;;;;;;;;;;12909396;23;20494;-74
2024/03/06 03:59:45;;;;;;;2.28;1.63;;;;;;;;;;12908542;22;20020;-74
2024/03/06 04:04:48;;;;;;;2.30;1.60;;;;;;;;;;12908135;23;20028;-74
2024/03/06 04:09:53;;;;;;;1.38;1.25;;;;;;;;;;12929319;22;20515;-74
2024/03/06 04:14:56;;;;;;;1.27;1.17;;;;;;;;;;12908940;23;20019;-74
2024/03/06 04:20:00;;;;;;;1.65;1.35;;;;;;;;;;12881378;22;20020;-74
2024/03/06 04:25:05;;;;;;;2.53;1.40;;;;;;;;;;12923506;23;20322;-74
2024/03/06 04:30:10;;;;;;;2.97;1.83;;;;;;;;;;12902161;22;20086;-74
2024/03/06 04:35:13;;;;;;;2.83;1.75;;;;;;;;;;12924006;22;20055;-73
2024/03/06 04:40:21;;;;;;;1.67;1.23;;;;;;;;;;12922774;22;20028;-74
2024/03/06 04:45:25;;;;;;;1.98;1.42;;;;;;;;;;12924759;23;20083;-74
2024/03/06 04:50:28;;;;;;;2.83;1.42;;;;;;;;;;12924480;22;20030;-74
2024/03/06 04:55:33;;;;;;;2.08;1.40;;;;;;;;;;12923790;23;20402;-74
2024/03/06 05:00:36;;;;;;;1.17;0.93;;;;;;;;;;12905497;22;20035;-74
2024/03/06 05:05:39;;;;;;;2.10;1.35;;;;;;;;;;12923791;23;20115;-74
2024/03/06 05:11:03;;;;;;;2.55;1.65;;;;;;;;;;12878894;23;20706;-74
2024/03/06 05:16:24;;;;;;;2.05;1.42;;;;;;;;;;12924886;22;20389;-75
2024/03/06 05:21:45;;;;;;;2.92;1.58;;;;;;;;;;12981099;22;20028;-75
2024/03/06 05:27:07;;;;;;;3.63;2.00;;;;;;;;;;12981876;22;20103;-75
2024/03/06 05:32:28;;;;;;;1.67;1.58;;;;;;;;;;12940196;22;20207;-75
2024/03/06 05:37:49;;;;;;;2.22;1.88;;;;;;;;;;12975989;22;20030;-75
2024/03/06 05:43:12;;;;;;;1.70;1.60;;;;;;;;;;12974593;22;20051;-75
2024/03/06 05:48:33;;;;;;;2.17;1.60;;;;;;;;;;12973341;22;20412;-75
2024/03/06 05:53:54;;;;;;;2.95;1.80;;;;;;;;;;12971482;22;20028;-75
2024/03/06 05:59:16;;;;;;;2.55;1.83;;;;;;;;;;12940861;22;20051;-75
2024/03/06 06:04:20;;;;;;;4.65;3.78;;;;;;;;;;12968083;22;20359;-75
2024/03/06 06:09:23;;;;;;;2.92;2.38;;;;;;;;;;12968234;22;20107;-74
2024/03/06 06:14:29;;;;;;;3.42;2.22;;;;;;;;;;12972314;22;20020;-75
2024/03/06 06:19:32;;;;;;;4.32;2.22;;;;;;;;;;12944503;22;20026;-75
2024/03/06 06:24:36;;;;;;;2.88;2.10;;;;;;;;;;12972410;22;20034;-75
2024/03/06 06:29:41;;;;;;;2.30;1.75;;;;;;;;;;12971893;22;20022;-75
2024/03/06 06:34:45;;;;;;;2.33;1.25;;;;;;;;;;12971914;22;20032;-75
2024/03/06 06:39:49;;;;;;;1.65;1.45;;;;;;;;;;12971593;22;20467;-75
2024/03/06 06:44:53;;;;;;;1.50;1.40;;;;;;;;;;12992661;22;20020;-75
2024/03/06 06:49:57;;;;;;;2.60;1.67;;;;;;;;;;12970182;22;20099;-75
2024/03/06 06:55:00;;;;;;;2.75;2.05;;;;;;;;;;12965796;22;20102;-75
2024/03/06 07:00:10;;;;;;;2.10;1.90;;;;;;;;;;12989578;22;20091;-75
2024/03/06 07:05:14;;;;;;;2.30;2.05;;;;;;;;;;12991050;22;20073;-75
2024/03/06 07:10:17;;;;;;;2.33;1.80;;;;;;;;;;12989880;22;20517;-75
2024/03/06 07:15:22;;;;;;;4.50;3.03;;;;;;;;;;12990371;22;20127;-75
2024/03/06 07:20:25;;;;;;;7.15;3.85;;;;;;;;;;12989288;22;20020;-75
2024/03/06 07:25:29;;;;;;;6.43;3.65;;;;;;;;;;12971005;22;20024;-75
2024/03/06 07:30:34;;;;;;;4.18;3.03;;;;;;;;;;12988564;22;20098;-75
2024/03/06 07:35:38;;;;;;;3.55;2.28;;;;;;;;;;12971626;22;20102;-75
2024/03/06 07:40:41;;;;;;;1.75;1.60;;;;;;;;;;12987721;22;20363;-75
2024/03/06 07:45:47;;;;;;;2.35;1.65;;;;;;;;;;12988482;22;20343;-75
2024/03/06 07:50:50;;;;;;;2.28;1.60;;;;;;;;;;12942670;22;20028;-75
2024/03/06 07:55:54;;;;;;;1.90;1.70;;;;;;;;;;12970019;22;20027;-75
2024/03/06 08:01:00;;;;;;;1.75;1.25;;;;;;;;;;12970179;22;20023;-75
2024/03/06 08:06:03;;;;;;;2.00;1.52;;;;;;;;;;12984944;22;20486;-75
2024/03/06 08:11:07;;;;;;;1.73;1.50;;;;;;;;;;12984902;22;20107;-75
2024/03/06 08:16:11;;;;;;;2.65;1.80;;;;;;;;;;12941948;22;20028;-75
2024/03/06 08:21:15;;;;;;;1.83;1.60;;;;;;;;;;12969138;22;20335;-75
2024/03/06 08:26:19;;;;;;;3.22;1.88;;;;;;;;;;12984313;22;20023;-75
2024/03/06 08:31:25;;;;;;;3.80;2.40;;;;;;;;;;12941381;22;20028;-75
2024/03/06 08:36:28;;;;;;;2.83;2.20;;;;;;;;;;12941293;22;20379;-75
2024/03/06 08:41:32;;;;;;;2.63;1.90;;;;;;;;;;12982242;22;20028;-75
2024/03/06 08:46:37;;;;;;;2.30;1.50;;;;;;;;;;12982269;22;20094;-75
2024/03/06 08:51:40;;;;;;;3.67;2.08;;;;;;;;;;12967726;22;20077;-75
2024/03/06 08:56:45;;;;;;;2.92;2.25;;;;;;;;;;12982103;22;20402;-75
2024/03/06 09:01:49;;;;;;;5.10;2.28;;;;;;;;;;12980898;22;20027;-75
2024/03/06 09:06:53;;;;;;;2.83;2.00;;;;;;;;;;12968030;22;20536;-75
2024/03/06 09:11:56;;;;;;;2.38;1.90;;;;;;;;;;12980032;22;20103;-75
2024/03/06 09:17:00;;;;;;;3.50;2.08;;;;;;;;;;12979451;22;20531;-75
2024/03/06 09:22:04;;;;;;;3.78;2.78;;;;;;;;;;12967327;22;20099;-75
2024/03/06 09:27:07;;;;;;;4.55;3.28;;;;;;;;;;12980280;22;20028;-75
2024/03/06 09:32:15;;;;;;;4.10;2.80;;;;;;;;;;12979187;22;20019;-75
2024/03/06 09:37:19;;;;;;;4.07;2.50;;;;;;;;;;12940835;22;20358;-75
2024/03/06 09:42:23;;;;;;;3.30;2.38;;;;;;;;;;12978191;22;20094;-75
2024/03/06 09:47:33;;;;;;;2.65;1.83;;;;;;;;;;12944004;22;20029;-75
2024/03/06 09:52:39;;;;;;;2.08;1.73;;;;;;;;;;12981754;22;20335;-75
2024/03/06 09:57:42;;;;;;;3.97;1.88;;;;;;;;;;12982272;22;20024;-75
2024/03/06 10:02:57;;;;;;;1.67;1.50;;;;;;;;;;12973065;22;20196;-73
2024/03/06 10:08:01;;;;;;;2.60;1.70;;;;;;;;;;12980986;22;20094;-73
2024/03/06 10:13:07;;;;;;;2.53;1.77;;;;;;;;;;12979985;22;20023;-73
2024/03/06 10:18:17;;;;;;;3.60;2.07;;;;;;;;;;12973191;22;20102;-73
2024/03/06 10:23:21;;;;;;;3.50;2.88;;;;;;;;;;12944761;22;20039;-73
2024/03/06 10:28:25;;;;;;;3.90;2.28;;;;;;;;;;12978037;22;20046;-73
2024/03/06 10:33:29;;;;;;;6.00;3.65;;;;;;;;;;12978002;22;20090;-73
2024/03/06 10:38:37;;;;;;;3.92;2.88;;;;;;;;;;12976901;22;20050;-72
2024/03/06 10:43:40;;;;;;;7.55;5.05;;;;;;;;;;12971997;22;20058;-72
2024/03/06 10:48:46;;;;;;;7.13;4.55;;;;;;;;;;12976123;22;20099;-73
2024/03/06 10:53:51;;;;;;;8.95;5.32;;;;;;;;;;12974979;22;20102;-72
2024/03/06 10:58:58;;;;;;;7.63;5.38;;;;;;;;;;12974006;22;20047;-73
2024/03/06 11:04:04;;;;;;;5.60;3.35;;;;;;;;;;12974295;22;20028;-73
2024/03/06 11:09:11;;;;;;;7.32;4.68;;;;;;;;;;12972788;22;20024;-72
2024/03/06 11:14:14;;;;;;;7.45;4.75;;;;;;;;;;12971366;22;20019;-72
2024/03/06 11:19:19;;;;;;;5.13;3.90;;;;;;;;;;13059645;22;20338;-74
2024/03/06 11:24:24;;;;;;;5.97;4.00;;;;;;;;;;13098809;22;20023;-74
2024/03/06 11:29:30;;;;;;;4.72;3.47;;;;;;;;;;13101186;22;20072;-75
2024/03/06 11:34:35;;;;;;;7.38;4.80;;;;;;;;;;13099603;22;20045;-74
2024/03/06 11:39:40;;;;;;;10.95;6.95;;;;;;;;;;13100413;22;20140;-74
2024/03/06 11:44:57;;;;;;;5.63;4.50;;;;;;;;;;13099871;22;20481;-74
2024/03/06 11:50:02;;;;;;;5.13;4.18;;;;;;;;;;13099068;22;20453;-74
2024/03/06 11:55:07;;;;;;;9.98;6.43;;;;;;;;;;13118854;22;20018;-74
2024/03/06 12:00:13;;;;;;;6.90;4.68;;;;;;;;;;13119246;22;20023;-74
2024/03/06 12:05:18;;;;;;;7.25;4.95;;;;;;;;;;13119417;22;20093;-74
2024/03/06 12:10:22;;;;;;;7.15;4.45;;;;;;;;;;13098754;22;20042;-74
2024/03/06 12:15:25;;;;;;;7.13;4.32;;;;;;;;;;13100334;22;20497;-74
2024/03/06 12:20:32;;;;;;;9.20;5.72;;;;;;;;;;13117409;22;20071;-74
2024/03/06 12:25:35;;;;;;;;;;;;;;;;;;13118043;22;20034;-74
2024/03/06 12:30:44;;;;;;;6.88;4.60;;;;;;;;;;13116665;22;20004;-74
2024/03/06 12:35:49;;;;;;;7.60;4.88;;;;;;;;;;13116902;22;20389;-74
2024/03/06 12:40:53;;;;;;;4.50;3.60;;;;;;;;;;13115632;22;20026;-74
2024/03/06 12:45:57;;;;;;;3.17;2.70;;;;;;;;;;13115661;22;20026;-74
2024/03/06 12:51:04;;;;;;;3.67;2.50;;;;;;;;;;13114594;22;20437;-74
2024/03/06 12:56:08;;;;;;;4.40;2.90;;;;;;;;;;13114567;22;20018;-74
2024/03/06 13:01:11;;;;;;;3.28;2.60;;;;;;;;;;13097634;22;20030;-74
2024/03/06 13:06:16;;;;;;;4.57;3.13;;;;;;;;;;13099220;22;20030;-74
2024/03/06 13:11:20;;;;;;;4.90;3.50;;;;;;;;;;13098423;22;20084;-74
2024/03/06 13:16:23;;;;;;;4.20;2.70;;;;;;;;;;13112954;22;20076;-74
2024/03/06 13:21:28;;;;;;;3.88;2.38;;;;;;;;;;13112149;22;20023;-74
2024/03/06 13:26:32;;;;;;;5.43;2.88;;;;;;;;;;13113730;22;20033;-74
2024/03/06 13:31:36;;;;;;;2.95;2.10;;;;;;;;;;13097482;22;20022;-74
2024/03/06 13:36:41;;;;;;;4.97;3.00;;;;;;;;;;13112239;22;20092;-74
2024/03/06 13:41:44;;;;;;;3.90;2.58;;;;;;;;;;13098180;22;20084;-74
2024/03/06 13:46:48;;;;;;;3.88;2.65;;;;;;;;;;13070470;22;20023;-74
2024/03/06 13:51:52;;;;;;;4.47;2.88;;;;;;;;;;13096132;22;20090;-74
2024/03/06 13:57:01;;;;;;;3.63;2.90;;;;;;;;;;13111641;22;20175;-74
2024/03/06 14:02:05;;;;;;;5.25;3.85;;;;;;;;;;13098713;22;20025;-74
2024/03/06 14:07:10;;;;;;;5.70;3.58;;;;;;;;;;13098063;22;20027;-74
2024/03/06 14:12:13;;;;;;;6.50;4.00;;;;;;;;;;13108575;22;20023;-75
2024/03/06 14:17:17;;;;;;;6.57;3.85;;;;;;;;;;13097728;22;20458;-74
2024/03/06 14:22:21;;;;;;;3.95;3.10;;;;;;;;;;13069491;22;20308;-74
2024/03/06 14:27:25;;;;;;;3.67;3.13;;;;;;;;;;13096504;22;20656;-74
2024/03/06 14:32:28;;;;;;;4.75;3.58;;;;;;;;;;13109061;22;20076;-74
2024/03/06 14:37:33;;;;;;;5.97;4.05;;;;;;;;;;13099870;22;20031;-74
2024/03/06 14:42:36;;;;;;;6.57;4.70;;;;;;;;;;13110280;22;20554;-74
2024/03/06 14:47:40;;;;;;;7.15;4.82;;;;;;;;;;13109806;22;20027;-74
2024/03/06 14:52:44;;;;;;;7.20;4.95;;;;;;;;;;13109558;22;20026;-74
2024/03/06 14:57:48;;;;;;;7.85;4.97;;;;;;;;;;13099755;22;20072;-74
2024/03/06 15:02:51;;;;;;;6.43;4.93;;;;;;;;;;13109085;22;20030;-74
2024/03/06 15:07:56;;;;;;;6.00;4.43;;;;;;;;;;13099151;22;20030;-75
2024/03/06 15:13:00;;;;;;;4.37;3.20;;;;;;;;;;13100908;22;20088;-74
2024/03/06 15:18:03;;;;;;;7.43;5.30;;;;;;;;;;13099313;22;20030;-74
2024/03/06 15:23:08;;;;;;;8.82;5.30;;;;;;;;;;13107865;22;20076;-74
2024/03/06 15:28:11;;;;;;;7.07;5.07;;;;;;;;;;13107235;22;20053;-74
2024/03/06 15:33:15;;;;;;;4.88;3.67;;;;;;;;;;13106871;22;20461;-74
2024/03/06 15:38:20;;;;;;;6.63;4.97;;;;;;;;;;13106263;22;20050;-74
2024/03/06 15:43:23;;;;;;;5.97;4.30;;;;;;;;;;13106564;22;20532;-74
2024/03/06 15:48:28;;;;;;;5.28;3.95;;;;;;;;;;13099922;22;20019;-74
2024/03/06 15:53:33;;;;;;;6.53;4.75;;;;;;;;;;13105788;22;20027;-74
2024/03/06 15:58:36;;;;;;;6.15;4.97;;;;;;;;;;13105407;22;20076;-74
2024/03/06 16:03:53;;;;;;;5.53;4.40;;;;;;;;;;13101470;22;20535;-74
2024/03/06 16:09:10;;;;;;;5.63;4.40;;;;;;;;;;13094278;22;20029;-74
2024/03/06 16:14:13;;;;;;;7.30;5.40;;;;;;;;;;13071073;22;20254;-74
2024/03/06 16:19:16;;;;;;;6.78;4.90;;;;;;;;;;13071399;22;20026;-74
2024/03/06 16:24:22;;;;;;;6.93;4.57;;;;;;;;;;13097276;22;20098;-74
2024/03/06 16:29:25;;;;;;;5.30;4.25;;;;;;;;;;13096535;22;20715;-73
2024/03/06 16:34:28;;;;;;;6.18;4.60;;;;;;;;;;13072109;22;20046;-74
2024/03/06 16:39:33;;;;;;;5.63;4.28;;;;;;;;;;13100005;22;20030;-74
2024/03/06 16:44:36;;;;;;;4.65;3.65;;;;;;;;;;13099194;22;20029;-74
2024/03/06 16:49:40;;;;;;;6.60;4.10;;;;;;;;;;13097114;22;20022;-74
2024/03/06 16:54:44;;;;;;;5.82;4.20;;;;;;;;;;13072177;22;20015;-74
2024/03/06 16:59:48;;;;;;;7.63;4.75;;;;;;;;;;13099171;22;20023;-74
2024/03/06 17:04:52;;;;;;;6.43;4.20;;;;;;;;;;13121538;22;20014;-74
2024/03/06 17:09:56;;;;;;;4.25;3.45;;;;;;;;;;13120279;22;20022;-74
2024/03/06 17:14:59;;;;;;;5.85;4.07;;;;;;;;;;13119779;22;20421;-74
2024/03/06 17:20:03;;;;;;;7.72;5.38;;;;;;;;;;13120766;22;20094;-74
2024/03/06 17:25:08;;;;;;;8.20;5.97;;;;;;;;;;13119503;22;20025;-74
2024/03/06 17:30:15;;;;;;;13.27;6.22;;;;;;;;;;13100366;22;20035;-74
2024/03/06 17:35:18;;;;;;;7.75;4.88;;;;;;;;;;13118940;22;20022;-74
2024/03/06 17:40:23;;;;;;;6.47;4.78;;;;;;;;;;13118128;22;20693;-74
2024/03/06 17:45:26;;;;;;;6.63;4.90;;;;;;;;;;13118089;22;20235;-74
2024/03/06 17:50:30;;;;;;;5.75;4.65;;;;;;;;;;13099502;22;20022;-74
2024/03/06 17:55:34;;;;;;;5.22;3.92;;;;;;;;;;13070953;22;20025;-74
2024/03/06 18:00:38;;;;;;;5.70;4.30;;;;;;;;;;13068052;22;20071;-74
2024/03/06 18:05:41;;;;;;;6.57;4.97;;;;;;;;;;13119151;22;20026;-74
2024/03/06 18:10:46;;;;;;;7.20;4.57;;;;;;;;;;13122258;22;20026;-74
2024/03/06 18:15:51;;;;;;;5.80;4.32;;;;;;;;;;13121735;22;20018;-74
2024/03/06 18:20:55;;;;;;;6.50;4.17;;;;;;;;;;13120560;22;20624;-73
2024/03/06 18:26:00;;;;;;;5.38;3.97;;;;;;;;;;13115470;22;20089;-73
2024/03/06 18:31:03;;;;;;;6.72;4.65;;;;;;;;;;13118608;22;20037;-73
2024/03/06 18:36:07;;;;;;;9.48;4.97;;;;;;;;;;13119079;22;20080;-73
2024/03/06 18:41:14;;;;;;;7.50;4.95;;;;;;;;;;13118353;22;20029;-73
2024/03/06 18:46:17;;;;;;;9.10;5.65;;;;;;;;;;13117999;22;20019;-73
2024/03/06 18:51:21;;;;;;;9.32;6.10;;;;;;;;;;13116363;22;20025;-73
2024/03/06 18:56:26;;;;;;;8.77;6.15;;;;;;;;;;13116838;22;20027;-73
2024/03/06 19:01:30;;;;;;;9.48;6.38;;;;;;;;;;13114235;22;20568;-73
2024/03/06 19:06:33;;;;;;;8.02;5.63;;;;;;;;;;13116242;22;20026;-73
2024/03/06 19:11:37;;;;;;;9.43;5.60;;;;;;;;;;13116009;22;20110;-73
2024/03/06 19:16:41;;;;;;;7.72;5.22;;;;;;;;;;13113823;22;20102;-73
2024/03/06 19:21:44;;;;;;;9.95;6.25;;;;;;;;;;13112704;22;20366;-73
2024/03/06 19:26:49;;;;;;;9.98;5.82;;;;;;;;;;13073324;22;20030;-74
2024/03/06 19:31:52;;;;;;;10.13;7.00;;;;;;;;;;13103018;22;20097;-74
2024/03/06 19:36:56;;;;;;;10.07;6.60;;;;;;;;;;13099805;22;20471;-74
2024/03/06 19:42:05;;;;;;;8.55;5.45;;;;;;;;;;13111947;22;20027;-73
2024/03/06 19:47:08;;;;;;;9.57;6.57;;;;;;;;;;13113930;22;20035;-74
2024/03/06 19:52:12;;;;;;;9.95;6.78;;;;;;;;;;13101848;22;20042;-74
2024/03/06 19:57:17;;;;;;;10.00;6.60;;;;;;;;;;13102282;22;20018;-74
2024/03/06 20:02:20;;;;;;;9.60;6.47;;;;;;;;;;13114017;22;20046;-73
2024/03/06 20:07:23;;;;;;;10.63;7.53;;;;;;;;;;13112683;22;20039;-74
2024/03/06 20:12:28;;;;;;;11.70;7.75;;;;;;;;;;13112027;22;20280;-74
2024/03/06 20:17:31;;;;;;;12.60;7.53;;;;;;;;;;13101460;22;20462;-73
2024/03/06 20:22:34;;;;;;;10.20;6.90;;;;;;;;;;13110477;22;20046;-73
2024/03/06 20:27:39;;;;;;;11.52;7.43;;;;;;;;;;13110704;22;20358;-73
2024/03/06 20:32:42;;;;;;;11.98;6.82;;;;;;;;;;13110447;22;20033;-74
2024/03/06 20:37:46;;;;;;;15.57;8.68;;;;;;;;;;13073155;22;20019;-74
2024/03/06 20:42:51;;;;;;;12.88;8.43;;;;;;;;;;13100748;22;20023;-73
2024/03/06 20:48:00;;;;;;;12.85;8.70;;;;;;;;;;13107393;22;20558;-74
2024/03/06 20:53:03;;;;;;;13.43;9.20;;;;;;;;;;13108514;22;20030;-73
2024/03/06 20:58:08;;;;;;;14.25;9.48;;;;;;;;;;13108934;22;20046;-74
2024/03/06 21:03:13;;;;;;;15.85;10.35;;;;;;;;;;13107952;22;20027;-74
2024/03/06 21:08:16;;;;;;;15.23;10.15;;;;;;;;;;13107970;22;20022;-74
2024/03/06 21:13:21;;;;;;;13.38;9.13;;;;;;;;;;13107702;22;20018;-74
2024/03/06 21:18:27;;;;;;;14.95;9.38;;;;;;;;;;13101848;22;20031;-74
2024/03/06 21:23:31;;;;;;;14.48;10.00;;;;;;;;;;13107108;22;20431;-74
2024/03/06 21:28:36;;;;;;;17.73;10.65;;;;;;;;;;13106501;22;20033;-73
2024/03/06 21:33:39;;;;;;;13.70;9.20;;;;;;;;;;13103983;22;20033;-73
2024/03/06 21:38:43;;;;;;;15.50;10.45;;;;;;;;;;13104354;22;20023;-73
2024/03/06 21:43:48;;;;;;;14.45;9.57;;;;;;;;;;13109124;22;20022;-73
2024/03/06 21:48:51;;;;;;;15.48;10.50;;;;;;;;;;13076778;22;20592;-74
2024/03/06 21:53:55;;;;;;;14.82;9.25;;;;;;;;;;13106609;22;20449;-74
2024/03/06 21:58:59;;;;;;;15.90;9.68;;;;;;;;;;13108807;22;20023;-74
2024/03/06 22:04:03;;;;;;;12.88;9.13;;;;;;;;;;13104996;22;20388;-74
2024/03/06 22:09:09;;;;;;;15.43;10.25;;;;;;;;;;13108170;22;20094;-73
2024/03/06 22:14:15;;;;;;;15.20;9.23;;;;;;;;;;13107583;22;20046;-73
2024/03/06 22:19:21;;;;;;;16.30;10.30;;;;;;;;;;13106341;22;20530;-74
2024/03/06 22:24:25;;;;;;;17.58;10.82;;;;;;;;;;13105989;22;20018;-74
2024/03/06 22:29:29;;;;;;;17.55;10.07;;;;;;;;;;13104049;22;20060;-73
2024/03/06 22:34:34;;;;;;;15.23;9.75;;;;;;;;;;13103466;22;20025;-73
2024/03/06 22:39:38;;;;;;;18.02;10.10;;;;;;;;;;13102803;22;20019;-74
2024/03/06 22:44:43;;;;;;;17.85;10.52;;;;;;;;;;13101322;22;20174;-74
2024/03/06 22:49:49;;;;;;;14.82;9.73;;;;;;;;;;13100810;22;20085;-73
2024/03/06 22:54:52;;;;;;;;;;;;;;;;;;13099977;22;20023;-73
2024/03/06 22:59:57;;;;;;;14.82;8.60;;;;;;;;;;13072668;22;19945;-73
2024/03/06 23:05:00;;;;;;;14.88;9.77;;;;;;;;;;13122229;22;20505;-73
2024/03/06 23:10:04;;;;;;;14.75;9.52;;;;;;;;;;13121156;22;20113;-73
2024/03/06 23:15:10;;;;;;;15.43;10.40;;;;;;;;;;13102006;22;20102;-73
2024/03/06 23:20:14;;;;;;;16.23;10.23;;;;;;;;;;13122130;22;20697;-74
2024/03/06 23:25:18;;;;;;;16.92;9.85;;;;;;;;;;13120250;22;20038;-74
2024/03/06 23:30:23;;;;;;;16.90;9.43;;;;;;;;;;13102015;22;20022;-74
2024/03/06 23:35:27;;;;;;;17.00;9.90;;;;;;;;;;13101551;22;20033;-73
2024/03/06 23:40:30;;;;;;;15.93;9.73;;;;;;;;;;13120068;22;20023;-73
2024/03/06 23:45:34;;;;;;;14.85;9.65;;;;;;;;;;13101808;22;20042;-74
2024/03/06 23:50:38;;;;;;;17.70;11.20;;;;;;;;;;13100512;22;20027;-73
2024/03/06 23:55:41;;;;;;;16.75;10.25;;;;;;;;;;13119134;22;20045;-73
